sensor_id;sensor_type;location;lat;lon;timestamp;pressure;altitude;pressure_sealevel;temperature;humidity
29331;BME280;16331;52.528;13.342;2023-07-09T00:02:27;162033.50;;;23.01;75.23
29331;BME280;16331;52.528;13.342;2023-07-09T00:04:54;161966.97;;;22.76;79.06
29331;BME280;16331;52.528;13.342;2023-07-09T00:07:36;162022.44;;;22.97;75.43
29331;BME280;16331;52.528;13.342;2023-07-09T00:10:05;162041.81;;;23.04;75.32
29331;BME280;16331;52.528;13.342;2023-07-09T00:12:40;162026.59;;;22.98;76.44
29331;BME280;16331;52.528;13.342;2023-07-09T00:15:07;162033.50;;;23.01;74.97
29331;BME280;16331;52.528;13.342;2023-07-09T00:17:59;162036.31;;;23.02;75.98
29331;BME280;16331;52.528;13.342;2023-07-09T00:20:47;162054.34;;;23.08;75.82
29331;BME280;16331;52.528;13.342;2023-07-09T00:23:25;162005.78;;;22.90;78.96
29331;BME280;16331;52.528;13.342;2023-07-09T00:25:53;162003.00;;;22.89;79.29
29331;BME280;16331;52.528;13.342;2023-07-09T00:28:23;161972.53;;;22.78;78.15
29331;BME280;16331;52.528;13.342;2023-07-09T00:30:51;161986.38;;;22.83;79.70
29331;BME280;16331;52.528;13.342;2023-07-09T00:33:18;161993.28;;;22.86;79.79
29331;BME280;16331;52.528;13.342;2023-07-09T00:35:54;162022.44;;;22.97;79.17
29331;BME280;16331;52.528;13.342;2023-07-09T00:38:23;162033.50;;;23.01;77.02
29331;BME280;16331;52.528;13.342;2023-07-09T00:41:03;162048.78;;;23.06;77.64
29331;BME280;16331;52.528;13.342;2023-07-09T00:43:34;162018.28;;;22.95;78.92
29331;BME280;16331;52.528;13.342;2023-07-09T00:49:09;162019.63;;;22.96;80.96
29331;BME280;16331;52.528;13.342;2023-07-09T00:51:41;162025.19;;;22.98;79.85
29331;BME280;16331;52.528;13.342;2023-07-09T00:54:27;161944.78;;;22.68;80.11
29331;BME280;16331;52.528;13.342;2023-07-09T00:57:32;161980.84;;;22.81;81.73
29331;BME280;16331;52.528;13.342;2023-07-09T01:00:05;161961.44;;;22.74;82.67
29331;BME280;16331;52.528;13.342;2023-07-09T01:02:39;161986.38;;;22.83;81.17
29331;BME280;16331;52.528;13.342;2023-07-09T01:05:11;161996.09;;;22.87;81.62
29331;BME280;16331;52.528;13.342;2023-07-09T01:07:40;162030.75;;;23.00;79.31
29331;BME280;16331;52.528;13.342;2023-07-09T01:10:07;162041.81;;;23.04;79.47
29331;BME280;16331;52.528;13.342;2023-07-09T01:12:35;162033.50;;;23.01;80.44
29331;BME280;16331;52.528;13.342;2023-07-09T01:15:03;162011.31;;;22.92;80.75
29331;BME280;16331;52.528;13.342;2023-07-09T01:17:33;162004.41;;;22.90;81.39
29331;BME280;16331;52.528;13.342;2023-07-09T01:20:01;161997.47;;;22.87;83.41
29331;BME280;16331;52.528;13.342;2023-07-09T01:22:27;161962.81;;;22.75;81.71
29331;BME280;16331;52.528;13.342;2023-07-09T01:25:05;162047.38;;;23.06;79.26
29331;BME280;16331;52.528;13.342;2023-07-09T01:27:41;162032.16;;;23.00;80.92
29331;BME280;16331;52.528;13.342;2023-07-09T01:30:26;162021.03;;;22.96;79.86
29331;BME280;16331;52.528;13.342;2023-07-09T01:32:57;162014.13;;;22.94;80.92
29331;BME280;16331;52.528;13.342;2023-07-09T01:35:25;162030.75;;;23.00;79.85
29331;BME280;16331;52.528;13.342;2023-07-09T01:38:03;162008.56;;;22.92;81.53
29331;BME280;16331;52.528;13.342;2023-07-09T01:40:32;162023.78;;;22.97;82.41
29331;BME280;16331;52.528;13.342;2023-07-09T01:43:01;162015.47;;;22.94;82.69
29331;BME280;16331;52.528;13.342;2023-07-09T01:45:28;162027.94;;;22.99;82.35
29331;BME280;16331;52.528;13.342;2023-07-09T01:47:57;162029.34;;;22.99;81.47
29331;BME280;16331;52.528;13.342;2023-07-09T01:50:25;162048.78;;;23.06;79.31
29331;BME280;16331;52.528;13.342;2023-07-09T01:52:56;162012.72;;;22.93;79.85
29331;BME280;16331;52.528;13.342;2023-07-09T01:55:26;161994.69;;;22.86;80.13
29331;BME280;16331;52.528;13.342;2023-07-09T01:57:56;161983.59;;;22.82;80.44
29331;BME280;16331;52.528;13.342;2023-07-09T02:00:27;161983.59;;;22.82;81.15
29331;BME280;16331;52.528;13.342;2023-07-09T02:02:54;161982.22;;;22.82;82.17
29331;BME280;16331;52.528;13.342;2023-07-09T02:05:26;161957.25;;;22.73;81.92
29331;BME280;16331;52.528;13.342;2023-07-09T02:08:04;161947.59;;;22.69;82.18
29331;BME280;16331;52.528;13.342;2023-07-09T02:10:33;161919.84;;;22.59;82.82
29331;BME280;16331;52.528;13.342;2023-07-09T02:13:01;161929.56;;;22.63;83.03
29331;BME280;16331;52.528;13.342;2023-07-09T02:15:28;161933.72;;;22.64;83.64
29331;BME280;16331;52.528;13.342;2023-07-09T02:18:00;161955.91;;;22.72;82.44
29331;BME280;16331;52.528;13.342;2023-07-09T02:20:31;161973.91;;;22.79;82.00
29331;BME280;16331;52.528;13.342;2023-07-09T02:23:18;161964.22;;;22.75;82.55
29331;BME280;16331;52.528;13.342;2023-07-09T02:25:45;161908.75;;;22.55;84.45
29331;BME280;16331;52.528;13.342;2023-07-09T02:28:34;161936.47;;;22.65;82.72
29331;BME280;16331;52.528;13.342;2023-07-09T02:31:03;161930.91;;;22.63;82.84
29331;BME280;16331;52.528;13.342;2023-07-09T02:33:30;161942.03;;;22.67;83.10
29331;BME280;16331;52.528;13.342;2023-07-09T02:36:01;161936.47;;;22.65;84.67
29331;BME280;16331;52.528;13.342;2023-07-09T02:38:31;161944.78;;;22.68;86.00
29331;BME280;16331;52.528;13.342;2023-07-09T02:40:59;161950.34;;;22.70;86.83
29331;BME280;16331;52.528;13.342;2023-07-09T02:43:25;161892.06;;;22.49;87.21
29331;BME280;16331;52.528;13.342;2023-07-09T02:45:52;161924.00;;;22.61;86.31
29331;BME280;16331;52.528;13.342;2023-07-09T02:48:22;161850.53;;;22.34;88.66
29331;BME280;16331;52.528;13.342;2023-07-09T02:50:49;161778.44;;;22.08;91.81
29331;BME280;16331;52.528;13.342;2023-07-09T02:53:16;161745.16;;;21.96;92.09
29331;BME280;16331;52.528;13.342;2023-07-09T02:55:45;161764.59;;;22.03;92.07
29331;BME280;16331;52.528;13.342;2023-07-09T02:58:11;161797.88;;;22.15;93.02
29331;BME280;16331;52.528;13.342;2023-07-09T03:00:42;161825.53;;;22.25;94.11
29331;BME280;16331;52.528;13.342;2023-07-09T03:03:08;161853.25;;;22.35;89.29
29331;BME280;16331;52.528;13.342;2023-07-09T03:05:38;161811.69;;;22.20;90.92
29331;BME280;16331;52.528;13.342;2023-07-09T03:08:05;161782.59;;;22.10;93.01
29331;BME280;16331;52.528;13.342;2023-07-09T03:10:33;161803.38;;;22.17;93.33
29331;BME280;16331;52.528;13.342;2023-07-09T03:13:01;161774.28;;;22.07;91.80
29331;BME280;16331;52.528;13.342;2023-07-09T03:15:27;161700.84;;;21.80;94.17
29331;BME280;16331;52.528;13.342;2023-07-09T03:17:56;161659.25;;;21.65;96.07
29331;BME280;16331;52.528;13.342;2023-07-09T03:20:25;161634.28;;;21.56;97.63
29331;BME280;16331;52.528;13.342;2023-07-09T03:22:53;161621.84;;;21.51;98.67
29331;BME280;16331;52.528;13.342;2023-07-09T03:25:22;161547.06;;;21.24;100.00
29331;BME280;16331;52.528;13.342;2023-07-09T03:27:55;161617.69;;;21.50;100.00
29331;BME280;16331;52.528;13.342;2023-07-09T03:30:24;161590.03;;;21.40;100.00
29331;BME280;16331;52.528;13.342;2023-07-09T03:33:19;161585.84;;;21.38;100.00
29331;BME280;16331;52.528;13.342;2023-07-09T03:35:47;161506.91;;;21.10;100.00
29331;BME280;16331;52.528;13.342;2023-07-09T03:38:18;161477.88;;;20.99;100.00
29331;BME280;16331;52.528;13.342;2023-07-09T03:40:54;161581.69;;;21.37;100.00
29331;BME280;16331;52.528;13.342;2023-07-09T03:43:24;161670.31;;;21.69;100.00
29331;BME280;16331;52.528;13.342;2023-07-09T03:46:02;161620.50;;;21.51;100.00
29331;BME280;16331;52.528;13.342;2023-07-09T03:48:31;161681.44;;;21.73;100.00
29331;BME280;16331;52.528;13.342;2023-07-09T03:50:58;161667.56;;;21.68;99.71
29331;BME280;16331;52.528;13.342;2023-07-09T03:53:27;161620.50;;;21.51;98.87
29331;BME280;16331;52.528;13.342;2023-07-09T03:55:56;161650.97;;;21.62;98.32
29331;BME280;16331;52.528;13.342;2023-07-09T03:58:33;161659.25;;;21.65;98.56
29331;BME280;16331;52.528;13.342;2023-07-09T04:01:01;161642.66;;;21.59;99.81
29331;BME280;16331;52.528;13.342;2023-07-09T04:03:33;161703.63;;;21.81;97.25
29331;BME280;16331;52.528;13.342;2023-07-09T04:06:03;161686.97;;;21.75;98.88
29331;BME280;16331;52.528;13.342;2023-07-09T04:08:31;161693.94;;;21.78;97.32
29331;BME280;16331;52.528;13.342;2023-07-09T04:11:04;161689.78;;;21.76;96.67
29331;BME280;16331;52.528;13.342;2023-07-09T04:13:32;161720.25;;;21.87;95.73
29331;BME280;16331;52.528;13.342;2023-07-09T04:16:01;161775.69;;;22.07;95.42
29331;BME280;16331;52.528;13.342;2023-07-09T04:18:30;161788.16;;;22.12;94.27
29331;BME280;16331;52.528;13.342;2023-07-09T04:21:00;161709.19;;;21.83;97.26
29331;BME280;16331;52.528;13.342;2023-07-09T04:23:26;161716.09;;;21.86;96.16
29331;BME280;16331;52.528;13.342;2023-07-09T04:25:54;161792.31;;;22.13;94.86
29331;BME280;16331;52.528;13.342;2023-07-09T04:28:21;161779.84;;;22.09;93.95
29331;BME280;16331;52.528;13.342;2023-07-09T04:30:51;161858.81;;;22.37;92.37
29331;BME280;16331;52.528;13.342;2023-07-09T04:33:19;161947.59;;;22.69;89.74
29331;BME280;16331;52.528;13.342;2023-07-09T04:35:46;162132.03;;;23.36;84.71
29331;BME280;16331;52.528;13.342;2023-07-09T04:38:15;162312.41;;;24.01;78.67
29331;BME280;16331;52.528;13.342;2023-07-09T04:40:50;162288.81;;;23.93;79.06
29331;BME280;16331;52.528;13.342;2023-07-09T04:43:16;162152.81;;;23.44;81.47
29331;BME280;16331;52.528;13.342;2023-07-09T04:45:43;162027.94;;;22.99;88.13
29331;BME280;16331;52.528;13.342;2023-07-09T04:48:10;162125.13;;;23.34;84.46
29331;BME280;16331;52.528;13.342;2023-07-09T04:50:38;162091.75;;;23.22;85.06
29331;BME280;16331;52.528;13.342;2023-07-09T04:53:07;162058.50;;;23.10;85.89
29331;BME280;16331;52.528;13.342;2023-07-09T04:55:51;162025.19;;;22.98;89.00
29331;BME280;16331;52.528;13.342;2023-07-09T04:58:22;162064.00;;;23.12;88.02
29331;BME280;16331;52.528;13.342;2023-07-09T05:00:50;162097.31;;;23.24;87.26
29331;BME280;16331;52.528;13.342;2023-07-09T05:03:22;162069.56;;;23.14;87.65
29331;BME280;16331;52.528;13.342;2023-07-09T05:05:49;162057.09;;;23.09;87.06
29331;BME280;16331;52.528;13.342;2023-07-09T05:08:15;162127.88;;;23.35;83.29
29331;BME280;16331;52.528;13.342;2023-07-09T05:10:46;162115.41;;;23.30;84.77
29331;BME280;16331;52.528;13.342;2023-07-09T05:13:13;162161.13;;;23.47;84.29
29331;BME280;16331;52.528;13.342;2023-07-09T05:15:46;162209.69;;;23.64;83.73
29331;BME280;16331;52.528;13.342;2023-07-09T05:18:16;162412.38;;;24.38;76.00
29331;BME280;16331;52.528;13.342;2023-07-09T05:20:43;162495.69;;;24.68;71.53
29331;BME280;16331;52.528;13.342;2023-07-09T05:23:17;162581.75;;;24.99;70.40
29331;BME280;16331;52.528;13.342;2023-07-09T05:25:44;162655.41;;;25.25;68.42
29331;BME280;16331;52.528;13.342;2023-07-09T05:28:13;162663.72;;;25.28;67.09
29331;BME280;16331;52.528;13.342;2023-07-09T05:30:45;162663.72;;;25.28;67.11
29331;BME280;16331;52.528;13.342;2023-07-09T05:33:13;162572.09;;;24.95;68.62
29331;BME280;16331;52.528;13.342;2023-07-09T05:35:43;162470.63;;;24.59;70.83
29331;BME280;16331;52.528;13.342;2023-07-09T05:38:14;162458.16;;;24.54;71.54
29331;BME280;16331;52.528;13.342;2023-07-09T05:40:46;162444.25;;;24.49;73.86
29331;BME280;16331;52.528;13.342;2023-07-09T05:43:13;162474.84;;;24.60;72.44
29331;BME280;16331;52.528;13.342;2023-07-09T05:45:41;162504.03;;;24.71;71.12
29331;BME280;16331;52.528;13.342;2023-07-09T05:48:07;162485.94;;;24.64;70.98
29331;BME280;16331;52.528;13.342;2023-07-09T05:50:34;162540.13;;;24.84;70.17
29331;BME280;16331;52.528;13.342;2023-07-09T05:53:03;162599.81;;;25.05;69.66
29331;BME280;16331;52.528;13.342;2023-07-09T05:55:30;162641.50;;;25.20;68.91
29331;BME280;16331;52.528;13.342;2023-07-09T05:58:01;162495.69;;;24.68;69.51
29331;BME280;16331;52.528;13.342;2023-07-09T06:00:27;162616.53;;;25.11;67.85
29331;BME280;16331;52.528;13.342;2023-07-09T06:03:10;162555.38;;;24.89;67.68
29331;BME280;16331;52.528;13.342;2023-07-09T06:05:44;162724.88;;;25.50;66.54
29331;BME280;16331;52.528;13.342;2023-07-09T06:08:15;162738.78;;;25.55;64.25
29331;BME280;16331;52.528;13.342;2023-07-09T06:10:58;162751.28;;;25.60;63.65
29331;BME280;16331;52.528;13.342;2023-07-09T06:13:26;162765.19;;;25.65;61.93
29331;BME280;16331;52.528;13.342;2023-07-09T06:15:54;162833.28;;;25.90;61.64
29331;BME280;16331;52.528;13.342;2023-07-09T06:18:23;162944.53;;;26.30;59.56
29331;BME280;16331;52.528;13.342;2023-07-09T06:20:59;162845.78;;;25.94;60.67
29331;BME280;16331;52.528;13.342;2023-07-09T06:23:28;162805.47;;;25.80;61.98
29331;BME280;16331;52.528;13.342;2023-07-09T06:26:05;162883.34;;;26.08;59.80
29331;BME280;16331;52.528;13.342;2023-07-09T06:28:41;162815.22;;;25.83;59.84
29331;BME280;16331;52.528;13.342;2023-07-09T06:31:09;162866.66;;;26.02;59.00
29331;BME280;16331;52.528;13.342;2023-07-09T06:33:44;162891.66;;;26.11;57.93
29331;BME280;16331;52.528;13.342;2023-07-09T06:36:21;163008.44;;;26.53;56.86
29331;BME280;16331;52.528;13.342;2023-07-09T06:38:48;163033.50;;;26.62;56.68
29331;BME280;16331;52.528;13.342;2023-07-09T06:41:15;163007.03;;;26.52;57.19
29331;BME280;16331;52.528;13.342;2023-07-09T06:43:48;163137.84;;;26.99;54.51
29331;BME280;16331;52.528;13.342;2023-07-09T06:46:18;163171.19;;;27.12;54.71
29331;BME280;16331;52.528;13.342;2023-07-09T06:48:50;163078.00;;;26.78;55.01
29331;BME280;16331;52.528;13.342;2023-07-09T06:51:19;163126.72;;;26.95;54.35
29331;BME280;16331;52.528;13.342;2023-07-09T06:53:58;163306.19;;;27.60;53.25
29331;BME280;16331;52.528;13.342;2023-07-09T06:56:37;163261.69;;;27.44;52.32
29331;BME280;16331;52.528;13.342;2023-07-09T06:59:04;163186.50;;;27.17;51.53
29331;BME280;16331;52.528;13.342;2023-07-09T07:01:32;163148.94;;;27.03;52.88
29331;BME280;16331;52.528;13.342;2023-07-09T07:04:01;162997.34;;;26.49;54.48
29331;BME280;16331;52.528;13.342;2023-07-09T07:06:34;163020.97;;;26.57;53.85
29331;BME280;16331;52.528;13.342;2023-07-09T07:09:15;163041.91;;;26.65;55.01
29331;BME280;16331;52.528;13.342;2023-07-09T07:11:48;163233.84;;;27.34;54.23
29331;BME280;16331;52.528;13.342;2023-07-09T07:14:16;163364.66;;;27.81;52.29
29331;BME280;16331;52.528;13.342;2023-07-09T07:16:48;163423.19;;;28.02;52.47
29331;BME280;16331;52.528;13.342;2023-07-09T07:19:15;163431.53;;;28.05;52.10
29331;BME280;16331;52.528;13.342;2023-07-09T07:21:52;163441.28;;;28.09;50.26
29331;BME280;16331;52.528;13.342;2023-07-09T07:24:20;163321.53;;;27.66;51.04
29331;BME280;16331;52.528;13.342;2023-07-09T07:26:49;163289.53;;;27.54;51.73
29331;BME280;16331;52.528;13.342;2023-07-09T07:29:18;163303.44;;;27.59;52.45
29331;BME280;16331;52.528;13.342;2023-07-09T07:31:47;163303.44;;;27.59;52.62
29331;BME280;16331;52.528;13.342;2023-07-09T07:34:13;163278.38;;;27.50;52.59
29331;BME280;16331;52.528;13.342;2023-07-09T07:36:40;163455.19;;;28.14;51.54
29331;BME280;16331;52.528;13.342;2023-07-09T07:39:06;163467.72;;;28.18;50.29
29331;BME280;16331;52.528;13.342;2023-07-09T07:41:32;163487.19;;;28.25;50.07
29331;BME280;16331;52.528;13.342;2023-07-09T07:43:58;163640.41;;;28.81;49.39
29331;BME280;16331;52.528;13.342;2023-07-09T07:46:33;163707.28;;;29.05;47.81
29331;BME280;16331;52.528;13.342;2023-07-09T07:49:02;163579.16;;;28.59;49.19
29331;BME280;16331;52.528;13.342;2023-07-09T07:51:29;163505.28;;;28.32;49.81
29331;BME280;16331;52.528;13.342;2023-07-09T07:54:01;163551.28;;;28.49;49.80
29331;BME280;16331;52.528;13.342;2023-07-09T07:56:33;163487.19;;;28.25;49.04
29331;BME280;16331;52.528;13.342;2023-07-09T07:59:01;163568.00;;;28.55;48.70
29331;BME280;16331;52.528;13.342;2023-07-09T08:01:28;163790.91;;;29.35;47.04
29331;BME280;16331;52.528;13.342;2023-07-09T08:03:56;163931.69;;;29.86;46.07
29331;BME280;16331;52.528;13.342;2023-07-09T08:06:24;163757.44;;;29.23;45.31
29331;BME280;16331;52.528;13.342;2023-07-09T08:08:52;163719.84;;;29.09;47.83
29331;BME280;16331;52.528;13.342;2023-07-09T08:11:19;163756.06;;;29.22;46.72
29331;BME280;16331;52.528;13.342;2023-07-09T08:13:46;163743.56;;;29.18;47.46
29331;BME280;16331;52.528;13.342;2023-07-09T08:16:15;163881.53;;;29.67;45.34
29331;BME280;16331;52.528;13.342;2023-07-09T08:18:43;163799.25;;;29.38;46.12
29331;BME280;16331;52.528;13.342;2023-07-09T08:21:31;163800.66;;;29.38;46.63
29331;BME280;16331;52.528;13.342;2023-07-09T08:23:58;163790.91;;;29.35;45.60
29331;BME280;16331;52.528;13.342;2023-07-09T08:26:26;163779.72;;;29.31;45.24
29331;BME280;16331;52.528;13.342;2023-07-09T08:28:54;163934.50;;;29.87;44.96
29331;BME280;16331;52.528;13.342;2023-07-09T08:31:21;164013.94;;;30.15;44.68
29331;BME280;16331;52.528;13.342;2023-07-09T08:33:47;163987.44;;;30.06;44.68
29331;BME280;16331;52.528;13.342;2023-07-09T08:36:13;164053.00;;;30.29;44.99
29331;BME280;16331;52.528;13.342;2023-07-09T08:38:41;164104.56;;;30.48;44.25
29331;BME280;16331;52.528;13.342;2023-07-09T08:44:14;164106.00;;;30.48;42.34
29331;BME280;16331;52.528;13.342;2023-07-09T08:49:55;163967.91;;;29.99;42.81
29331;BME280;16331;52.528;13.342;2023-07-09T08:52:40;163933.09;;;29.86;43.63
29331;BME280;16331;52.528;13.342;2023-07-09T08:55:17;163998.56;;;30.10;42.57
29331;BME280;16331;52.528;13.342;2023-07-09T08:58:00;164114.34;;;30.51;42.43
29331;BME280;16331;52.528;13.342;2023-07-09T09:00:48;163921.97;;;29.82;43.25
29331;BME280;16331;52.528;13.342;2023-07-09T09:06:15;164061.38;;;30.32;42.53
29331;BME280;16331;52.528;13.342;2023-07-09T09:09:38;164022.28;;;30.18;42.50
29331;BME280;16331;52.528;13.342;2023-07-09T09:14:41;164206.47;;;30.84;40.96
29331;BME280;16331;52.528;13.342;2023-07-09T09:17:19;164107.41;;;30.49;41.47
29331;BME280;16331;52.528;13.342;2023-07-09T09:19:55;164075.31;;;30.37;42.11
29331;BME280;16331;52.528;13.342;2023-07-09T09:22:28;164119.94;;;30.53;39.62
29331;BME280;16331;52.528;13.342;2023-07-09T09:27:41;164206.47;;;30.84;37.94
29331;BME280;16331;52.528;13.342;2023-07-09T09:30:15;164100.41;;;30.46;37.65
29331;BME280;16331;52.528;13.342;2023-07-09T09:32:44;164066.97;;;30.34;38.54
29331;BME280;16331;52.528;13.342;2023-07-09T09:35:17;164205.06;;;30.84;37.91
29331;BME280;16331;52.528;13.342;2023-07-09T09:37:54;164099.03;;;30.46;37.66
29331;BME280;16331;52.528;13.342;2023-07-09T09:40:23;164178.53;;;30.74;38.94
29331;BME280;16331;52.528;13.342;2023-07-09T09:42:56;164111.56;;;30.50;39.11
29331;BME280;16331;52.528;13.342;2023-07-09T09:45:37;164276.19;;;31.10;38.35
29331;BME280;16331;52.528;13.342;2023-07-09T09:48:28;164378.09;;;31.46;38.15
29331;BME280;16331;52.528;13.342;2023-07-09T09:50:58;164306.88;;;31.21;37.67
29331;BME280;16331;52.528;13.342;2023-07-09T09:53:37;164297.13;;;31.17;37.33
29331;BME280;16331;52.528;13.342;2023-07-09T09:56:10;164306.88;;;31.21;38.65
29331;BME280;16331;52.528;13.342;2023-07-09T09:58:40;164410.19;;;31.58;37.57
29331;BME280;16331;52.528;13.342;2023-07-09T10:01:56;164242.69;;;30.97;37.55
29331;BME280;16331;52.528;13.342;2023-07-09T10:04:48;164390.63;;;31.51;36.50
29331;BME280;16331;52.528;13.342;2023-07-09T10:07:43;164442.31;;;31.69;35.95
29331;BME280;16331;52.528;13.342;2023-07-09T10:10:20;164419.97;;;31.61;36.10
29331;BME280;16331;52.528;13.342;2023-07-09T10:12:50;164365.53;;;31.42;35.92
29331;BME280;16331;52.528;13.342;2023-07-09T10:15:48;164343.22;;;31.34;36.26
29331;BME280;16331;52.528;13.342;2023-07-09T10:21:18;164452.03;;;31.73;35.57
29331;BME280;16331;52.528;13.342;2023-07-09T10:27:29;164446.50;;;31.71;36.26
29331;BME280;16331;52.528;13.342;2023-07-09T10:33:12;164493.97;;;31.88;36.73
29331;BME280;16331;52.528;13.342;2023-07-09T10:36:01;164563.75;;;32.13;35.95
29331;BME280;16331;52.528;13.342;2023-07-09T10:41:02;164597.28;;;32.25;36.90
29331;BME280;16331;52.528;13.342;2023-07-09T10:43:38;164695.06;;;32.60;38.03
29331;BME280;16331;52.528;13.342;2023-07-09T10:46:21;164672.72;;;32.52;35.33
29331;BME280;16331;52.528;13.342;2023-07-09T10:48:51;164672.72;;;32.52;34.94
29331;BME280;16331;52.528;13.342;2023-07-09T10:51:32;164660.16;;;32.48;34.86
29331;BME280;16331;52.528;13.342;2023-07-09T10:54:32;164530.28;;;32.01;35.72
29331;BME280;16331;52.528;13.342;2023-07-09T10:57:20;164619.63;;;32.33;35.47
29331;BME280;16331;52.528;13.342;2023-07-09T10:59:49;164745.34;;;32.78;34.56
29331;BME280;16331;52.528;13.342;2023-07-09T11:02:32;164742.53;;;32.77;34.49
29331;BME280;16331;52.528;13.342;2023-07-09T11:05:06;164636.41;;;32.39;34.76
29331;BME280;16331;52.528;13.342;2023-07-09T11:07:51;164739.75;;;32.76;34.26
29331;BME280;16331;52.528;13.342;2023-07-09T11:13:19;164647.63;;;32.43;35.02
29331;BME280;16331;52.528;13.342;2023-07-09T11:15:51;164767.72;;;32.86;34.85
29331;BME280;16331;52.528;13.342;2023-07-09T11:18:26;164591.69;;;32.23;35.33
29331;BME280;16331;52.528;13.342;2023-07-09T11:21:04;164795.66;;;32.96;34.65
29331;BME280;16331;52.528;13.342;2023-07-09T11:23:52;164785.88;;;32.93;34.38
29331;BME280;16331;52.528;13.342;2023-07-09T11:26:34;164848.72;;;33.15;34.51
29331;BME280;16331;52.528;13.342;2023-07-09T11:29:18;164991.28;;;33.66;33.06
29331;BME280;16331;52.528;13.342;2023-07-09T11:31:46;164968.94;;;33.58;33.60
29331;BME280;16331;52.528;13.342;2023-07-09T11:36:50;165119.97;;;34.13;33.02
29331;BME280;16331;52.528;13.342;2023-07-09T11:42:31;165052.81;;;33.89;33.19
29331;BME280;16331;52.528;13.342;2023-07-09T11:45:12;165217.91;;;34.48;32.72
29331;BME280;16331;52.528;13.342;2023-07-09T11:47:45;165424.91;;;35.22;31.59
29331;BME280;16331;52.528;13.342;2023-07-09T11:50:26;165357.75;;;34.98;31.67
29331;BME280;16331;52.528;13.342;2023-07-09T11:52:59;165298.94;;;34.77;31.87
29331;BME280;16331;52.528;13.342;2023-07-09T11:55:45;165178.66;;;34.34;32.25
29331;BME280;16331;52.528;13.342;2023-07-09T11:58:14;164966.16;;;33.57;32.67
29331;BME280;16331;52.528;13.342;2023-07-09T12:00:45;165296.19;;;34.76;31.38
29331;BME280;16331;52.528;13.342;2023-07-09T12:03:18;165622.31;;;35.93;31.28
29331;BME280;16331;52.528;13.342;2023-07-09T12:05:50;165735.75;;;36.33;29.66
29331;BME280;16331;52.528;13.342;2023-07-09T12:08:18;165780.56;;;36.50;28.66
29331;BME280;16331;52.528;13.342;2023-07-09T12:10:48;165753.97;;;36.40;28.91
29331;BME280;16331;52.528;13.342;2023-07-09T12:13:16;165710.47;;;36.24;28.50
29331;BME280;16331;52.528;13.342;2023-07-09T12:15:43;165626.50;;;35.94;28.85
29331;BME280;16331;52.528;13.342;2023-07-09T12:18:15;166013.13;;;37.33;27.97
29331;BME280;16331;52.528;13.342;2023-07-09T12:20:59;166063.53;;;37.51;27.07
29331;BME280;16331;52.528;13.342;2023-07-09T12:23:31;166416.88;;;38.77;26.56
29331;BME280;16331;52.528;13.342;2023-07-09T12:26:02;166506.69;;;39.10;25.44
29331;BME280;16331;52.528;13.342;2023-07-09T12:28:30;166320.13;;;38.43;26.12
29331;BME280;16331;52.528;13.342;2023-07-09T12:30:57;166440.72;;;38.86;26.45
29331;BME280;16331;52.528;13.342;2023-07-09T12:33:26;166304.66;;;38.37;26.00
29331;BME280;16331;52.528;13.342;2023-07-09T12:35:57;166607.75;;;39.46;25.47
29331;BME280;16331;52.528;13.342;2023-07-09T12:38:27;166672.25;;;39.69;24.73
29331;BME280;16331;52.528;13.342;2023-07-09T12:40:56;166492.66;;;39.05;24.89
29331;BME280;16331;52.528;13.342;2023-07-09T12:43:30;166658.22;;;39.64;25.10
29331;BME280;16331;52.528;13.342;2023-07-09T12:46:00;166697.53;;;39.78;25.09
29331;BME280;16331;52.528;13.342;2023-07-09T12:48:29;166213.53;;;38.05;25.85
29331;BME280;16331;52.528;13.342;2023-07-09T12:50:57;166014.50;;;37.33;26.88
29331;BME280;16331;52.528;13.342;2023-07-09T12:53:26;166078.97;;;37.56;26.60
29331;BME280;16331;52.528;13.342;2023-07-09T12:56:00;166234.56;;;38.12;26.39
29331;BME280;16331;52.528;13.342;2023-07-09T12:58:32;166067.75;;;37.52;26.43
29331;BME280;16331;52.528;13.342;2023-07-09T13:01:00;166243.00;;;38.15;26.10
29331;BME280;16331;52.528;13.342;2023-07-09T13:03:32;166352.38;;;38.54;25.39
29331;BME280;16331;52.528;13.342;2023-07-09T13:06:03;166287.88;;;38.31;25.45
29331;BME280;16331;52.528;13.342;2023-07-09T13:08:32;165976.66;;;37.20;26.55
29331;BME280;16331;52.528;13.342;2023-07-09T13:11:01;166656.84;;;39.63;24.65
29331;BME280;16331;52.528;13.342;2023-07-09T13:13:52;166465.97;;;38.95;24.45
29331;BME280;16331;52.528;13.342;2023-07-09T13:16:20;166428.13;;;38.81;24.95
29331;BME280;16331;52.528;13.342;2023-07-09T13:18:50;166366.44;;;38.59;25.03
29331;BME280;16331;52.528;13.342;2023-07-09T13:21:18;166346.75;;;38.52;25.05
29331;BME280;16331;52.528;13.342;2023-07-09T13:23:46;166527.75;;;39.17;25.40
29331;BME280;16331;52.528;13.342;2023-07-09T13:26:14;166857.59;;;40.35;23.53
29331;BME280;16331;52.528;13.342;2023-07-09T13:28:40;167017.66;;;40.92;23.02
29331;BME280;16331;52.528;13.342;2023-07-09T13:31:17;166836.50;;;40.27;23.04
29331;BME280;16331;52.528;13.342;2023-07-09T13:33:50;166812.63;;;40.19;23.67
29331;BME280;16331;52.528;13.342;2023-07-09T13:36:18;166778.91;;;40.07;23.39
29331;BME280;16331;52.528;13.342;2023-07-09T13:38:44;167005.03;;;40.88;22.99
29331;BME280;16331;52.528;13.342;2023-07-09T13:41:16;166917.91;;;40.57;23.28
29331;BME280;16331;52.528;13.342;2023-07-09T13:43:45;166662.41;;;39.65;23.88
29331;BME280;16331;52.528;13.342;2023-07-09T13:46:13;166649.78;;;39.61;24.04